aviador You're here:

KAUS Decoded Metar

AUSTIN in TX, USA
Report Time2017-12-11 02:53:00
UTC Time2017-12-11 03:59:37
Flight Rules vfr VFR
Wind240° at 05 kt
W.Decomp.*RWY 17: 2.2 kt HW 4.5 kt RCW
W.Rank240° ranks 32
Current wind is above 240° avg. (4.9)
Visibility9999 m
Phenomena:N/A
Clouds:N/A
Expected CloudBase > 2,800 ft AGL from Temp-Dew spread
CeilingNone
Temp09°C (ISA -5)
Dew Point02°C (62% RH)
AAT5.5°C
QNH1028 hPa
Density Alt-449 ft
Elevation545 ft
Report Wrong Elevation
Raw Report
KAUS 110253Z 24005KT 10SM CLR 09/02 A3037 RMK AO2 SLP287 T00940017
50004=

Extra information for KAUS:More info

Metar Taf Metar & Taf Last 4 Metars F.Rules Stats Wind Profile Meteogram Temp Stats Airport Information Weather charts Add Link Nearby VenuesMetar ALERT Operation Metar Decoded Social comments

AIRNAV info for KAUS